sensor_id;sensor_type;location;lat;lon;timestamp;temperature;humidity
12006;DHT22;6062;47.294;12.182;2023-05-13T00:01:23;6.60;68.60
12006;DHT22;6062;47.294;12.182;2023-05-13T00:03:48;6.60;68.60
12006;DHT22;6062;47.294;12.182;2023-05-13T00:06:14;6.60;68.70
12006;DHT22;6062;47.294;12.182;2023-05-13T00:08:40;6.60;68.70
12006;DHT22;6062;47.294;12.182;2023-05-13T00:11:06;6.60;68.70
12006;DHT22;6062;47.294;12.182;2023-05-13T00:13:32;6.60;68.70
12006;DHT22;6062;47.294;12.182;2023-05-13T00:15:58;6.60;68.80
12006;DHT22;6062;47.294;12.182;2023-05-13T00:18:24;6.60;68.80
12006;DHT22;6062;47.294;12.182;2023-05-13T00:20:50;6.60;68.70
12006;DHT22;6062;47.294;12.182;2023-05-13T00:23:16;6.60;68.70
12006;DHT22;6062;47.294;12.182;2023-05-13T00:25:41;6.70;68.70
12006;DHT22;6062;47.294;12.182;2023-05-13T00:28:09;6.70;68.70
12006;DHT22;6062;47.294;12.182;2023-05-13T00:30:36;6.70;68.70
12006;DHT22;6062;47.294;12.182;2023-05-13T00:33:01;6.70;68.70
12006;DHT22;6062;47.294;12.182;2023-05-13T00:35:27;6.70;68.70
12006;DHT22;6062;47.294;12.182;2023-05-13T00:37:53;6.70;68.60
12006;DHT22;6062;47.294;12.182;2023-05-13T00:40:21;6.70;68.60
12006;DHT22;6062;47.294;12.182;2023-05-13T00:42:48;6.70;68.80
12006;DHT22;6062;47.294;12.182;2023-05-13T00:45:15;6.70;68.70
12006;DHT22;6062;47.294;12.182;2023-05-13T00:47:41;6.70;68.70
12006;DHT22;6062;47.294;12.182;2023-05-13T00:50:09;6.70;68.60
12006;DHT22;6062;47.294;12.182;2023-05-13T00:52:37;6.70;68.70
12006;DHT22;6062;47.294;12.182;2023-05-13T00:55:04;6.70;68.70
12006;DHT22;6062;47.294;12.182;2023-05-13T00:57:31;6.70;68.70
12006;DHT22;6062;47.294;12.182;2023-05-13T00:59:58;6.70;68.70
12006;DHT22;6062;47.294;12.182;2023-05-13T01:02:33;6.70;68.60
12006;DHT22;6062;47.294;12.182;2023-05-13T01:05:25;6.70;68.60
12006;DHT22;6062;47.294;12.182;2023-05-13T01:10:58;6.70;68.40
12006;DHT22;6062;47.294;12.182;2023-05-13T01:13:32;6.70;68.30
12006;DHT22;6062;47.294;12.182;2023-05-13T01:16:09;6.70;68.20
12006;DHT22;6062;47.294;12.182;2023-05-13T01:18:43;6.70;68.20
12006;DHT22;6062;47.294;12.182;2023-05-13T01:21:11;6.70;68.10
12006;DHT22;6062;47.294;12.182;2023-05-13T01:23:37;6.70;68.00
12006;DHT22;6062;47.294;12.182;2023-05-13T01:26:03;6.70;68.00
12006;DHT22;6062;47.294;12.182;2023-05-13T01:28:29;6.70;68.00
12006;DHT22;6062;47.294;12.182;2023-05-13T01:30:55;6.70;68.00
12006;DHT22;6062;47.294;12.182;2023-05-13T01:33:22;6.70;68.10
12006;DHT22;6062;47.294;12.182;2023-05-13T01:35:49;6.70;68.10
12006;DHT22;6062;47.294;12.182;2023-05-13T01:38:16;6.70;68.10
12006;DHT22;6062;47.294;12.182;2023-05-13T01:40:43;6.70;68.10
12006;DHT22;6062;47.294;12.182;2023-05-13T01:43:10;6.70;68.10
12006;DHT22;6062;47.294;12.182;2023-05-13T01:45:36;6.70;68.10
12006;DHT22;6062;47.294;12.182;2023-05-13T01:48:02;6.70;68.10
12006;DHT22;6062;47.294;12.182;2023-05-13T01:50:28;6.70;68.10
12006;DHT22;6062;47.294;12.182;2023-05-13T01:52:53;6.70;68.20
12006;DHT22;6062;47.294;12.182;2023-05-13T01:55:19;6.70;68.10
12006;DHT22;6062;47.294;12.182;2023-05-13T01:57:45;6.70;68.10
12006;DHT22;6062;47.294;12.182;2023-05-13T02:00:11;6.80;68.10
12006;DHT22;6062;47.294;12.182;2023-05-13T02:02:37;6.70;68.10
12006;DHT22;6062;47.294;12.182;2023-05-13T02:05:03;6.70;68.00
12006;DHT22;6062;47.294;12.182;2023-05-13T02:07:29;6.70;68.10
12006;DHT22;6062;47.294;12.182;2023-05-13T02:09:55;6.80;68.20
12006;DHT22;6062;47.294;12.182;2023-05-13T02:12:25;6.70;68.00
12006;DHT22;6062;47.294;12.182;2023-05-13T02:14:52;6.80;68.10
12006;DHT22;6062;47.294;12.182;2023-05-13T02:17:19;6.70;68.00
12006;DHT22;6062;47.294;12.182;2023-05-13T02:19:46;6.70;67.90
12006;DHT22;6062;47.294;12.182;2023-05-13T02:22:12;6.80;67.90
12006;DHT22;6062;47.294;12.182;2023-05-13T02:24:38;6.80;67.90
12006;DHT22;6062;47.294;12.182;2023-05-13T02:27:07;6.80;67.90
12006;DHT22;6062;47.294;12.182;2023-05-13T02:29:33;6.80;67.90
12006;DHT22;6062;47.294;12.182;2023-05-13T02:31:59;6.80;67.90
12006;DHT22;6062;47.294;12.182;2023-05-13T02:34:25;6.70;67.80
12006;DHT22;6062;47.294;12.182;2023-05-13T02:36:51;6.80;68.00
12006;DHT22;6062;47.294;12.182;2023-05-13T02:39:17;6.70;67.90
12006;DHT22;6062;47.294;12.182;2023-05-13T02:41:42;6.70;68.00
12006;DHT22;6062;47.294;12.182;2023-05-13T02:44:09;6.70;68.00
12006;DHT22;6062;47.294;12.182;2023-05-13T02:46:35;6.70;68.10
12006;DHT22;6062;47.294;12.182;2023-05-13T02:49:01;6.70;68.10
12006;DHT22;6062;47.294;12.182;2023-05-13T02:51:27;6.70;68.10
12006;DHT22;6062;47.294;12.182;2023-05-13T02:53:53;6.70;68.10
12006;DHT22;6062;47.294;12.182;2023-05-13T02:56:18;6.70;68.20
12006;DHT22;6062;47.294;12.182;2023-05-13T02:58:45;6.70;68.30
12006;DHT22;6062;47.294;12.182;2023-05-13T03:01:11;6.70;68.20
12006;DHT22;6062;47.294;12.182;2023-05-13T03:03:37;6.60;68.30
12006;DHT22;6062;47.294;12.182;2023-05-13T03:06:03;6.70;68.50
12006;DHT22;6062;47.294;12.182;2023-05-13T03:08:29;6.60;68.40
12006;DHT22;6062;47.294;12.182;2023-05-13T03:10:56;6.70;68.50
12006;DHT22;6062;47.294;12.182;2023-05-13T03:13:23;6.60;68.50
12006;DHT22;6062;47.294;12.182;2023-05-13T03:15:49;6.60;68.40
12006;DHT22;6062;47.294;12.182;2023-05-13T03:18:14;6.60;68.40
12006;DHT22;6062;47.294;12.182;2023-05-13T03:20:40;6.60;68.40
12006;DHT22;6062;47.294;12.182;2023-05-13T03:23:06;6.60;68.40
12006;DHT22;6062;47.294;12.182;2023-05-13T03:25:32;6.60;68.30
12006;DHT22;6062;47.294;12.182;2023-05-13T03:27:57;6.60;68.30
12006;DHT22;6062;47.294;12.182;2023-05-13T03:30:23;6.60;68.30
12006;DHT22;6062;47.294;12.182;2023-05-13T03:32:49;6.60;68.30
12006;DHT22;6062;47.294;12.182;2023-05-13T03:35:15;6.50;68.40
12006;DHT22;6062;47.294;12.182;2023-05-13T03:37:40;6.50;68.40
12006;DHT22;6062;47.294;12.182;2023-05-13T03:40:06;6.50;68.50
12006;DHT22;6062;47.294;12.182;2023-05-13T03:42:33;6.50;68.50
12006;DHT22;6062;47.294;12.182;2023-05-13T03:44:58;6.50;68.50
12006;DHT22;6062;47.294;12.182;2023-05-13T03:47:24;6.50;68.50
12006;DHT22;6062;47.294;12.182;2023-05-13T03:49:50;6.40;68.50
12006;DHT22;6062;47.294;12.182;2023-05-13T03:52:16;6.40;68.60
12006;DHT22;6062;47.294;12.182;2023-05-13T03:54:42;6.40;68.70
12006;DHT22;6062;47.294;12.182;2023-05-13T03:57:08;6.40;68.90
12006;DHT22;6062;47.294;12.182;2023-05-13T03:59:33;6.40;68.90
12006;DHT22;6062;47.294;12.182;2023-05-13T04:01:59;6.40;68.90
12006;DHT22;6062;47.294;12.182;2023-05-13T04:04:25;6.40;69.00
12006;DHT22;6062;47.294;12.182;2023-05-13T04:06:51;6.40;69.00
12006;DHT22;6062;47.294;12.182;2023-05-13T04:09:16;6.40;69.00
12006;DHT22;6062;47.294;12.182;2023-05-13T04:11:42;6.40;69.00
12006;DHT22;6062;47.294;12.182;2023-05-13T04:14:08;6.40;69.10
12006;DHT22;6062;47.294;12.182;2023-05-13T04:16:34;6.40;69.20
12006;DHT22;6062;47.294;12.182;2023-05-13T04:18:59;6.40;69.20
12006;DHT22;6062;47.294;12.182;2023-05-13T04:21:25;6.40;69.40
12006;DHT22;6062;47.294;12.182;2023-05-13T04:23:51;6.40;69.40
12006;DHT22;6062;47.294;12.182;2023-05-13T04:26:17;6.40;69.40
12006;DHT22;6062;47.294;12.182;2023-05-13T04:28:43;6.40;69.50
12006;DHT22;6062;47.294;12.182;2023-05-13T04:31:09;6.40;69.40
12006;DHT22;6062;47.294;12.182;2023-05-13T04:33:36;6.40;69.40
12006;DHT22;6062;47.294;12.182;2023-05-13T04:36:02;6.50;69.30
12006;DHT22;6062;47.294;12.182;2023-05-13T04:38:29;6.50;69.20
12006;DHT22;6062;47.294;12.182;2023-05-13T04:40:55;6.50;69.10
12006;DHT22;6062;47.294;12.182;2023-05-13T04:43:21;6.50;69.10
12006;DHT22;6062;47.294;12.182;2023-05-13T04:45:47;6.60;69.10
12006;DHT22;6062;47.294;12.182;2023-05-13T04:48:13;6.60;69.10
12006;DHT22;6062;47.294;12.182;2023-05-13T04:50:44;6.70;69.10
12006;DHT22;6062;47.294;12.182;2023-05-13T04:53:11;6.70;69.00
12006;DHT22;6062;47.294;12.182;2023-05-13T04:55:37;6.80;69.00
12006;DHT22;6062;47.294;12.182;2023-05-13T04:58:02;6.80;68.80
12006;DHT22;6062;47.294;12.182;2023-05-13T05:00:28;6.90;68.90
12006;DHT22;6062;47.294;12.182;2023-05-13T05:02:54;6.90;68.70
12006;DHT22;6062;47.294;12.182;2023-05-13T05:05:20;7.00;68.70
12006;DHT22;6062;47.294;12.182;2023-05-13T05:07:45;7.00;68.60
12006;DHT22;6062;47.294;12.182;2023-05-13T05:10:11;7.00;68.50
12006;DHT22;6062;47.294;12.182;2023-05-13T05:12:37;7.10;68.50
12006;DHT22;6062;47.294;12.182;2023-05-13T05:15:04;7.10;68.40
12006;DHT22;6062;47.294;12.182;2023-05-13T05:17:30;7.10;68.30
12006;DHT22;6062;47.294;12.182;2023-05-13T05:19:58;7.20;68.20
12006;DHT22;6062;47.294;12.182;2023-05-13T05:22:25;7.20;68.10
12006;DHT22;6062;47.294;12.182;2023-05-13T05:24:51;7.20;68.00
12006;DHT22;6062;47.294;12.182;2023-05-13T05:27:17;7.30;67.90
12006;DHT22;6062;47.294;12.182;2023-05-13T05:29:43;7.30;67.90
12006;DHT22;6062;47.294;12.182;2023-05-13T05:32:09;7.30;67.70
12006;DHT22;6062;47.294;12.182;2023-05-13T05:34:35;7.30;67.70
12006;DHT22;6062;47.294;12.182;2023-05-13T05:37:01;7.40;67.80
12006;DHT22;6062;47.294;12.182;2023-05-13T05:39:26;7.40;67.80
12006;DHT22;6062;47.294;12.182;2023-05-13T05:41:52;7.40;67.90
12006;DHT22;6062;47.294;12.182;2023-05-13T05:44:18;7.50;68.00
12006;DHT22;6062;47.294;12.182;2023-05-13T05:46:43;7.50;68.00
12006;DHT22;6062;47.294;12.182;2023-05-13T05:49:09;7.60;68.10
12006;DHT22;6062;47.294;12.182;2023-05-13T05:51:35;7.70;68.20
12006;DHT22;6062;47.294;12.182;2023-05-13T05:54:00;7.80;68.20
12006;DHT22;6062;47.294;12.182;2023-05-13T05:56:26;7.90;68.30
12006;DHT22;6062;47.294;12.182;2023-05-13T05:58:52;8.00;68.30
12006;DHT22;6062;47.294;12.182;2023-05-13T06:01:17;8.10;68.20
12006;DHT22;6062;47.294;12.182;2023-05-13T06:03:43;8.20;68.10
12006;DHT22;6062;47.294;12.182;2023-05-13T06:06:10;8.30;68.10
12006;DHT22;6062;47.294;12.182;2023-05-13T06:08:35;8.50;67.80
12006;DHT22;6062;47.294;12.182;2023-05-13T06:11:01;8.60;67.60
12006;DHT22;6062;47.294;12.182;2023-05-13T06:13:27;8.70;67.10
12006;DHT22;6062;47.294;12.182;2023-05-13T06:15:52;8.90;67.00
12006;DHT22;6062;47.294;12.182;2023-05-13T06:18:18;9.00;66.50
12006;DHT22;6062;47.294;12.182;2023-05-13T06:20:44;9.10;66.30
12006;DHT22;6062;47.294;12.182;2023-05-13T06:23:10;9.30;66.30
12006;DHT22;6062;47.294;12.182;2023-05-13T06:25:36;9.40;66.20
12006;DHT22;6062;47.294;12.182;2023-05-13T06:28:01;9.50;66.20
12006;DHT22;6062;47.294;12.182;2023-05-13T06:30:27;9.70;66.00
12006;DHT22;6062;47.294;12.182;2023-05-13T06:32:53;9.80;66.00
12006;DHT22;6062;47.294;12.182;2023-05-13T06:35:19;9.90;65.70
12006;DHT22;6062;47.294;12.182;2023-05-13T06:37:45;10.00;65.50
12006;DHT22;6062;47.294;12.182;2023-05-13T06:40:11;10.20;65.70
12006;DHT22;6062;47.294;12.182;2023-05-13T06:42:37;10.30;65.80
12006;DHT22;6062;47.294;12.182;2023-05-13T06:45:06;10.50;66.00
12006;DHT22;6062;47.294;12.182;2023-05-13T06:47:33;10.60;65.90
12006;DHT22;6062;47.294;12.182;2023-05-13T06:49:59;10.90;66.10
12006;DHT22;6062;47.294;12.182;2023-05-13T06:52:25;11.10;66.00
12006;DHT22;6062;47.294;12.182;2023-05-13T06:54:51;11.30;65.90
12006;DHT22;6062;47.294;12.182;2023-05-13T06:57:16;11.60;65.50
12006;DHT22;6062;47.294;12.182;2023-05-13T06:59:43;11.80;64.70
12006;DHT22;6062;47.294;12.182;2023-05-13T07:02:09;12.10;63.60
12006;DHT22;6062;47.294;12.182;2023-05-13T07:04:36;12.30;62.40
12006;DHT22;6062;47.294;12.182;2023-05-13T07:07:02;12.50;62.00
12006;DHT22;6062;47.294;12.182;2023-05-13T07:09:27;12.70;61.70
12006;DHT22;6062;47.294;12.182;2023-05-13T07:11:53;12.90;62.10
12006;DHT22;6062;47.294;12.182;2023-05-13T07:14:19;13.20;61.70
12006;DHT22;6062;47.294;12.182;2023-05-13T07:16:45;13.40;61.30
12006;DHT22;6062;47.294;12.182;2023-05-13T07:19:11;13.70;61.10
12006;DHT22;6062;47.294;12.182;2023-05-13T07:21:37;14.00;60.90
12006;DHT22;6062;47.294;12.182;2023-05-13T07:24:03;14.30;61.00
12006;DHT22;6062;47.294;12.182;2023-05-13T07:26:30;14.80;60.30
12006;DHT22;6062;47.294;12.182;2023-05-13T07:28:56;15.20;59.60
12006;DHT22;6062;47.294;12.182;2023-05-13T07:31:22;15.70;59.40
12006;DHT22;6062;47.294;12.182;2023-05-13T07:33:55;16.20;57.40
12006;DHT22;6062;47.294;12.182;2023-05-13T07:36:21;16.60;56.50
12006;DHT22;6062;47.294;12.182;2023-05-13T07:38:47;17.10;55.30
12006;DHT22;6062;47.294;12.182;2023-05-13T07:41:13;17.50;54.00
12006;DHT22;6062;47.294;12.182;2023-05-13T07:43:39;17.80;53.20
12006;DHT22;6062;47.294;12.182;2023-05-13T07:46:05;18.10;52.70
12006;DHT22;6062;47.294;12.182;2023-05-13T07:48:30;18.40;51.00
12006;DHT22;6062;47.294;12.182;2023-05-13T07:50:56;18.50;50.10
12006;DHT22;6062;47.294;12.182;2023-05-13T07:53:22;18.70;49.60
12006;DHT22;6062;47.294;12.182;2023-05-13T07:55:48;18.80;49.20
12006;DHT22;6062;47.294;12.182;2023-05-13T07:58:14;18.90;48.60
12006;DHT22;6062;47.294;12.182;2023-05-13T08:00:39;19.00;48.10
12006;DHT22;6062;47.294;12.182;2023-05-13T08:03:05;19.00;47.90
12006;DHT22;6062;47.294;12.182;2023-05-13T08:05:31;19.10;47.40
12006;DHT22;6062;47.294;12.182;2023-05-13T08:07:56;19.10;46.50
12006;DHT22;6062;47.294;12.182;2023-05-13T08:10:23;19.10;46.70
12006;DHT22;6062;47.294;12.182;2023-05-13T08:12:49;19.00;46.70
12006;DHT22;6062;47.294;12.182;2023-05-13T08:15:18;18.90;45.90
12006;DHT22;6062;47.294;12.182;2023-05-13T08:17:44;18.80;46.50
12006;DHT22;6062;47.294;12.182;2023-05-13T08:20:10;18.80;46.40
12006;DHT22;6062;47.294;12.182;2023-05-13T08:22:36;18.70;46.70
12006;DHT22;6062;47.294;12.182;2023-05-13T08:25:02;18.70;46.90
12006;DHT22;6062;47.294;12.182;2023-05-13T08:27:28;18.60;46.80
12006;DHT22;6062;47.294;12.182;2023-05-13T08:29:54;18.70;47.00
12006;DHT22;6062;47.294;12.182;2023-05-13T08:32:19;18.70;46.60
12006;DHT22;6062;47.294;12.182;2023-05-13T08:34:45;18.70;46.50
12006;DHT22;6062;47.294;12.182;2023-05-13T08:37:11;18.70;47.20
12006;DHT22;6062;47.294;12.182;2023-05-13T08:39:37;18.80;47.70
12006;DHT22;6062;47.294;12.182;2023-05-13T08:42:03;19.00;47.00
12006;DHT22;6062;47.294;12.182;2023-05-13T08:44:37;19.20;47.10
12006;DHT22;6062;47.294;12.182;2023-05-13T08:47:15;19.50;47.00
12006;DHT22;6062;47.294;12.182;2023-05-13T08:49:51;19.80;46.80
12006;DHT22;6062;47.294;12.182;2023-05-13T08:52:18;20.20;46.90
12006;DHT22;6062;47.294;12.182;2023-05-13T08:54:45;20.40;45.10
12006;DHT22;6062;47.294;12.182;2023-05-13T08:57:12;20.70;44.20
12006;DHT22;6062;47.294;12.182;2023-05-13T08:59:37;20.80;43.30
12006;DHT22;6062;47.294;12.182;2023-05-13T09:02:04;20.90;42.80
12006;DHT22;6062;47.294;12.182;2023-05-13T09:04:31;21.00;42.10
12006;DHT22;6062;47.294;12.182;2023-05-13T09:07:05;20.90;41.50
12006;DHT22;6062;47.294;12.182;2023-05-13T09:09:31;20.90;41.20
12006;DHT22;6062;47.294;12.182;2023-05-13T09:11:57;20.70;40.90
12006;DHT22;6062;47.294;12.182;2023-05-13T09:14:28;20.50;40.90
12006;DHT22;6062;47.294;12.182;2023-05-13T09:16:56;20.30;40.30
12006;DHT22;6062;47.294;12.182;2023-05-13T09:19:23;20.00;40.40
12006;DHT22;6062;47.294;12.182;2023-05-13T09:21:50;19.70;40.60
12006;DHT22;6062;47.294;12.182;2023-05-13T09:24:16;19.40;40.70
12006;DHT22;6062;47.294;12.182;2023-05-13T09:26:44;19.10;40.40
12006;DHT22;6062;47.294;12.182;2023-05-13T09:29:26;18.60;40.80
12006;DHT22;6062;47.294;12.182;2023-05-13T09:31:59;18.20;41.30
12006;DHT22;6062;47.294;12.182;2023-05-13T09:34:28;17.80;41.40
12006;DHT22;6062;47.294;12.182;2023-05-13T09:37:04;17.30;41.80
12006;DHT22;6062;47.294;12.182;2023-05-13T09:39:32;16.80;42.60
12006;DHT22;6062;47.294;12.182;2023-05-13T09:42:03;16.30;43.10
12006;DHT22;6062;47.294;12.182;2023-05-13T09:44:31;15.80;43.90
12006;DHT22;6062;47.294;12.182;2023-05-13T09:46:57;15.30;44.70
12006;DHT22;6062;47.294;12.182;2023-05-13T09:49:25;14.90;45.90
12006;DHT22;6062;47.294;12.182;2023-05-13T09:51:51;14.60;46.90
12006;DHT22;6062;47.294;12.182;2023-05-13T09:54:17;14.30;47.80
12006;DHT22;6062;47.294;12.182;2023-05-13T09:56:43;14.20;48.70
12006;DHT22;6062;47.294;12.182;2023-05-13T09:59:08;14.10;49.30
12006;DHT22;6062;47.294;12.182;2023-05-13T10:01:34;14.00;49.50
12006;DHT22;6062;47.294;12.182;2023-05-13T10:04:03;14.00;50.10
12006;DHT22;6062;47.294;12.182;2023-05-13T10:06:30;14.00;50.70
12006;DHT22;6062;47.294;12.182;2023-05-13T10:08:58;14.10;51.20
12006;DHT22;6062;47.294;12.182;2023-05-13T10:11:29;14.20;51.50
12006;DHT22;6062;47.294;12.182;2023-05-13T10:14:01;14.30;51.80
12006;DHT22;6062;47.294;12.182;2023-05-13T10:16:33;14.50;52.40
12006;DHT22;6062;47.294;12.182;2023-05-13T10:18:59;14.70;52.20
12006;DHT22;6062;47.294;12.182;2023-05-13T10:21:27;14.90;52.30
12006;DHT22;6062;47.294;12.182;2023-05-13T10:23:52;15.20;51.50
12006;DHT22;6062;47.294;12.182;2023-05-13T10:26:22;15.40;50.70
12006;DHT22;6062;47.294;12.182;2023-05-13T10:28:48;15.70;50.00
12006;DHT22;6062;47.294;12.182;2023-05-13T10:31:15;15.80;50.00
12006;DHT22;6062;47.294;12.182;2023-05-13T10:33:42;16.00;48.80
12006;DHT22;6062;47.294;12.182;2023-05-13T10:39:33;16.00;47.40
12006;DHT22;6062;47.294;12.182;2023-05-13T10:42:30;15.90;47.50
12006;DHT22;6062;47.294;12.182;2023-05-13T10:45:04;15.80;47.70
12006;DHT22;6062;47.294;12.182;2023-05-13T10:47:31;15.70;47.90
12006;DHT22;6062;47.294;12.182;2023-05-13T10:49:58;15.60;48.10
12006;DHT22;6062;47.294;12.182;2023-05-13T10:52:48;15.60;48.80
12006;DHT22;6062;47.294;12.182;2023-05-13T10:55:16;15.60;49.40
12006;DHT22;6062;47.294;12.182;2023-05-13T10:58:09;15.70;50.00
12006;DHT22;6062;47.294;12.182;2023-05-13T11:00:37;15.90;50.90
12006;DHT22;6062;47.294;12.182;2023-05-13T11:05:45;16.30;50.20
12006;DHT22;6062;47.294;12.182;2023-05-13T11:08:50;16.60;49.80
12006;DHT22;6062;47.294;12.182;2023-05-13T11:11:29;16.80;49.20
12006;DHT22;6062;47.294;12.182;2023-05-13T11:14:22;16.90;49.10
12006;DHT22;6062;47.294;12.182;2023-05-13T11:19:38;17.30;48.80
12006;DHT22;6062;47.294;12.182;2023-05-13T11:22:23;17.50;48.80
12006;DHT22;6062;47.294;12.182;2023-05-13T11:25:09;17.80;49.00
12006;DHT22;6062;47.294;12.182;2023-05-13T11:27:39;18.10;47.30
12006;DHT22;6062;47.294;12.182;2023-05-13T11:30:20;18.20;46.80
12006;DHT22;6062;47.294;12.182;2023-05-13T11:32:51;18.40;47.10
12006;DHT22;6062;47.294;12.182;2023-05-13T11:35:25;18.50;46.00
12006;DHT22;6062;47.294;12.182;2023-05-13T11:37:53;18.60;46.20
12006;DHT22;6062;47.294;12.182;2023-05-13T11:40:23;18.70;44.90
12006;DHT22;6062;47.294;12.182;2023-05-13T11:42:50;18.70;45.10
12006;DHT22;6062;47.294;12.182;2023-05-13T11:45:17;18.60;45.20
12006;DHT22;6062;47.294;12.182;2023-05-13T11:47:45;18.50;44.40
12006;DHT22;6062;47.294;12.182;2023-05-13T11:50:20;18.40;45.10
12006;DHT22;6062;47.294;12.182;2023-05-13T11:53:00;18.20;43.80
12006;DHT22;6062;47.294;12.182;2023-05-13T11:55:27;18.00;44.90
12006;DHT22;6062;47.294;12.182;2023-05-13T11:58:01;17.90;45.30
12006;DHT22;6062;47.294;12.182;2023-05-13T12:00:31;17.70;45.40
12006;DHT22;6062;47.294;12.182;2023-05-13T12:02:59;17.60;45.70
12006;DHT22;6062;47.294;12.182;2023-05-13T12:05:27;17.40;45.30
12006;DHT22;6062;47.294;12.182;2023-05-13T12:07:56;17.20;45.20
12006;DHT22;6062;47.294;12.182;2023-05-13T12:10:23;17.00;46.20
12006;DHT22;6062;47.294;12.182;2023-05-13T12:12:50;16.80;47.10
12006;DHT22;6062;47.294;12.182;2023-05-13T12:15:17;16.70;47.40
12006;DHT22;6062;47.294;12.182;2023-05-13T12:17:44;16.60;47.60
12006;DHT22;6062;47.294;12.182;2023-05-13T12:20:13;16.50;47.50
12006;DHT22;6062;47.294;12.182;2023-05-13T12:25:46;16.10;48.10
12006;DHT22;6062;47.294;12.182;2023-05-13T12:28:25;15.80;48.40
12006;DHT22;6062;47.294;12.182;2023-05-13T12:31:01;15.50;48.70
12006;DHT22;6062;47.294;12.182;2023-05-13T12:36:15;15.20;49.70
12006;DHT22;6062;47.294;12.182;2023-05-13T12:39:09;15.10;50.40
12006;DHT22;6062;47.294;12.182;2023-05-13T12:41:49;15.00;50.70
12006;DHT22;6062;47.294;12.182;2023-05-13T12:44:18;15.00;50.50
12006;DHT22;6062;47.294;12.182;2023-05-13T12:46:52;15.00;50.40
12006;DHT22;6062;47.294;12.182;2023-05-13T12:49:18;15.00;50.50
12006;DHT22;6062;47.294;12.182;2023-05-13T12:51:44;14.90;50.30
12006;DHT22;6062;47.294;12.182;2023-05-13T12:54:10;14.70;51.00
12006;DHT22;6062;47.294;12.182;2023-05-13T12:56:36;14.50;51.40
12006;DHT22;6062;47.294;12.182;2023-05-13T12:59:06;14.40;51.30
12006;DHT22;6062;47.294;12.182;2023-05-13T13:01:33;14.30;51.70
12006;DHT22;6062;47.294;12.182;2023-05-13T13:04:00;14.10;52.00
12006;DHT22;6062;47.294;12.182;2023-05-13T13:06:25;14.00;52.10
12006;DHT22;6062;47.294;12.182;2023-05-13T13:08:51;13.70;52.50
12006;DHT22;6062;47.294;12.182;2023-05-13T13:11:17;13.60;53.00
12006;DHT22;6062;47.294;12.182;2023-05-13T13:13:44;13.50;53.40
12006;DHT22;6062;47.294;12.182;2023-05-13T13:16:11;13.40;53.80
12006;DHT22;6062;47.294;12.182;2023-05-13T13:18:40;13.30;53.90
12006;DHT22;6062;47.294;12.182;2023-05-13T13:21:07;13.20;54.00
12006;DHT22;6062;47.294;12.182;2023-05-13T13:23:33;13.00;53.80
12006;DHT22;6062;47.294;12.182;2023-05-13T13:25:59;12.80;53.90
12006;DHT22;6062;47.294;12.182;2023-05-13T13:28:25;12.70;54.20
12006;DHT22;6062;47.294;12.182;2023-05-13T13:30:51;12.50;54.50
12006;DHT22;6062;47.294;12.182;2023-05-13T13:33:18;12.40;55.00
12006;DHT22;6062;47.294;12.182;2023-05-13T13:35:44;12.30;55.40
12006;DHT22;6062;47.294;12.182;2023-05-13T13:38:11;12.20;55.80
12006;DHT22;6062;47.294;12.182;2023-05-13T13:40:38;12.20;56.10
12006;DHT22;6062;47.294;12.182;2023-05-13T13:43:05;12.20;56.30
12006;DHT22;6062;47.294;12.182;2023-05-13T13:45:31;12.30;56.70
12006;DHT22;6062;47.294;12.182;2023-05-13T13:47:58;12.30;56.70
12006;DHT22;6062;47.294;12.182;2023-05-13T13:50:24;12.40;56.70
12006;DHT22;6062;47.294;12.182;2023-05-13T13:52:50;12.40;56.40
12006;DHT22;6062;47.294;12.182;2023-05-13T13:55:17;12.50;56.40
12006;DHT22;6062;47.294;12.182;2023-05-13T13:57:44;12.50;56.80
12006;DHT22;6062;47.294;12.182;2023-05-13T14:00:10;12.70;57.00
12006;DHT22;6062;47.294;12.182;2023-05-13T14:02:37;12.90;57.40
12006;DHT22;6062;47.294;12.182;2023-05-13T14:05:02;13.10;56.90
12006;DHT22;6062;47.294;12.182;2023-05-13T14:07:28;13.10;56.20
12006;DHT22;6062;47.294;12.182;2023-05-13T14:09:54;13.10;56.10
12006;DHT22;6062;47.294;12.182;2023-05-13T14:12:20;12.90;56.20
12006;DHT22;6062;47.294;12.182;2023-05-13T14:14:46;12.70;56.50
12006;DHT22;6062;47.294;12.182;2023-05-13T14:17:11;12.50;57.20
12006;DHT22;6062;47.294;12.182;2023-05-13T14:19:37;12.30;57.90
12006;DHT22;6062;47.294;12.182;2023-05-13T14:22:03;12.10;58.70
12006;DHT22;6062;47.294;12.182;2023-05-13T14:24:29;11.90;59.00
12006;DHT22;6062;47.294;12.182;2023-05-13T14:26:55;11.70;59.40
12006;DHT22;6062;47.294;12.182;2023-05-13T14:29:21;11.60;59.80
12006;DHT22;6062;47.294;12.182;2023-05-13T14:31:47;11.40;60.20
12006;DHT22;6062;47.294;12.182;2023-05-13T14:34:13;11.20;60.40
12006;DHT22;6062;47.294;12.182;2023-05-13T14:36:38;11.10;60.50
12006;DHT22;6062;47.294;12.182;2023-05-13T14:39:04;11.00;60.60
12006;DHT22;6062;47.294;12.182;2023-05-13T14:41:30;10.90;60.70
12006;DHT22;6062;47.294;12.182;2023-05-13T14:43:56;10.80;60.80
12006;DHT22;6062;47.294;12.182;2023-05-13T14:46:21;10.70;60.80
12006;DHT22;6062;47.294;12.182;2023-05-13T14:48:47;10.70;61.00
12006;DHT22;6062;47.294;12.182;2023-05-13T14:51:13;10.70;61.20
12006;DHT22;6062;47.294;12.182;2023-05-13T14:53:38;10.60;61.00
12006;DHT22;6062;47.294;12.182;2023-05-13T14:56:05;10.60;60.90
12006;DHT22;6062;47.294;12.182;2023-05-13T14:58:31;10.50;60.80
12006;DHT22;6062;47.294;12.182;2023-05-13T15:00:57;10.50;60.70
12006;DHT22;6062;47.294;12.182;2023-05-13T15:03:23;10.40;60.30
12006;DHT22;6062;47.294;12.182;2023-05-13T15:05:48;10.40;60.30
12006;DHT22;6062;47.294;12.182;2023-05-13T15:08:15;10.30;60.00
12006;DHT22;6062;47.294;12.182;2023-05-13T15:10:41;10.30;60.30
12006;DHT22;6062;47.294;12.182;2023-05-13T15:13:07;10.20;59.80
12006;DHT22;6062;47.294;12.182;2023-05-13T15:15:33;10.00;59.30
12006;DHT22;6062;47.294;12.182;2023-05-13T15:17:59;9.80;59.20
12006;DHT22;6062;47.294;12.182;2023-05-13T15:20:24;9.60;59.60
12006;DHT22;6062;47.294;12.182;2023-05-13T15:22:50;9.40;59.80
12006;DHT22;6062;47.294;12.182;2023-05-13T15:25:16;9.20;60.20
12006;DHT22;6062;47.294;12.182;2023-05-13T15:27:42;9.10;60.40
12006;DHT22;6062;47.294;12.182;2023-05-13T15:30:07;8.90;60.60
12006;DHT22;6062;47.294;12.182;2023-05-13T15:32:33;8.80;61.10
12006;DHT22;6062;47.294;12.182;2023-05-13T15:34:59;8.80;61.90
12006;DHT22;6062;47.294;12.182;2023-05-13T15:37:25;8.70;61.30
12006;DHT22;6062;47.294;12.182;2023-05-13T15:39:50;8.60;61.50
12006;DHT22;6062;47.294;12.182;2023-05-13T15:42:16;8.50;61.70
12006;DHT22;6062;47.294;12.182;2023-05-13T15:44:42;8.50;61.90
12006;DHT22;6062;47.294;12.182;2023-05-13T15:47:09;8.40;62.10
12006;DHT22;6062;47.294;12.182;2023-05-13T15:49:35;8.30;62.20
12006;DHT22;6062;47.294;12.182;2023-05-13T15:52:01;8.30;62.30
12006;DHT22;6062;47.294;12.182;2023-05-13T15:54:28;8.30;62.50
12006;DHT22;6062;47.294;12.182;2023-05-13T15:56:54;8.20;62.60